Time;durP1;ratioP1;P1;durP2;ratioP2;P2;SDS_P1;SDS_P2;PMS_P1;PMS_P2;Temp;Humidity;BMP_temperature;BMP_pressure;BME280_temperature;BME280_humidity;BME280_pressure;Samples;Min_cycle;Max_cycle;Signal;HPM_P1;HPM_P2
2024/01/11 00:01:26;;;;;;;0.10;0.10;;;;;;;-146.30;100.00;58188.94;10520366;28;20036;-81
2024/01/11 00:06:27;;;;;;;1.65;1.55;;;;;;;-146.30;100.00;58188.94;10464058;28;20514;-79
2024/01/11 00:11:29;;;;;;;0.17;0.17;;;;;;;-146.30;100.00;58188.94;10495900;28;20135;-79
2024/01/11 00:16:31;;;;;;;0.63;0.63;;;;;;;-146.30;100.00;58188.94;10505398;28;20048;-79
2024/01/11 00:21:33;;;;;;;0.17;0.17;;;;;;;-146.30;100.00;58188.94;10485798;28;20097;-80
2024/01/11 00:26:36;;;;;;;0.00;0.00;;;;;;;-146.30;100.00;58188.94;10499181;28;20050;-80
2024/01/11 00:31:38;;;;;;;3.72;1.35;;;;;;;-146.30;100.00;58188.94;10477455;28;20400;-80
2024/01/11 00:36:40;;;;;;;0.00;0.00;;;;;;;-146.30;100.00;58188.94;10467924;28;20414;-79
2024/01/11 00:41:41;;;;;;;0.43;0.43;;;;;;;-146.30;100.00;58188.94;10504575;28;20048;-79
2024/01/11 00:46:43;;;;;;;1.48;1.38;;;;;;;-146.30;100.00;58188.94;10477577;28;20071;-81
2024/01/11 00:51:45;;;;;;;0.10;0.10;;;;;;;-146.30;100.00;58188.94;10476607;28;20048;-80
2024/01/11 00:56:47;;;;;;;0.10;0.10;;;;;;;-146.30;100.00;58188.94;10467885;28;20048;-80
2024/01/11 01:01:50;;;;;;;0.00;0.00;;;;;;;-146.30;100.00;58188.94;10501392;28;20133;-79
2024/01/11 01:06:51;;;;;;;0.30;0.30;;;;;;;-146.30;100.00;58188.94;10499289;28;20052;-79
2024/01/11 01:11:53;;;;;;;2.40;2.20;;;;;;;-146.30;100.00;58188.94;10498998;28;20056;-80
2024/01/11 01:16:56;;;;;;;0.10;0.10;;;;;;;-146.30;100.00;58188.94;10502023;28;20105;-79
2024/01/11 01:21:58;;;;;;;1.33;1.33;;;;;;;-146.30;100.00;58188.94;10502564;28;20028;-79
2024/01/11 01:27:00;;;;;;;0.30;0.30;;;;;;;-146.30;100.00;58188.94;10474271;28;20446;-80
2024/01/11 01:32:02;;;;;;;0.75;0.75;;;;;;;-146.30;100.00;58188.94;10497464;28;20048;-78
2024/01/11 01:37:04;;;;;;;1.20;1.17;;;;;;;-146.30;100.00;58188.94;10505471;28;20036;-79
2024/01/11 01:42:06;;;;;;;0.05;0.05;;;;;;;-146.30;100.00;58188.94;10483127;28;20117;-79
2024/01/11 01:47:10;;;;;;;4.30;2.92;;;;;;;-146.30;100.00;58188.94;10476000;28;20511;-79
2024/01/11 01:52:16;;;;;;;1.27;1.20;;;;;;;-146.30;100.00;58188.94;10501523;28;20098;-79
2024/01/11 01:57:20;;;;;;;0.10;0.10;;;;;;;-146.30;100.00;58188.94;10517593;28;20048;-79
2024/01/11 02:02:22;;;;;;;0.10;0.10;;;;;;;-146.30;100.00;58188.94;10490315;28;20040;-79
2024/01/11 02:07:24;;;;;;;0.10;0.10;;;;;;;-146.30;100.00;58188.94;10512313;28;20522;-79
2024/01/11 02:12:29;;;;;;;0.10;0.10;;;;;;;-146.30;100.00;58188.94;10497242;28;20045;-78
2024/01/11 02:17:31;;;;;;;0.20;0.20;;;;;;;-146.30;100.00;58188.94;10501461;28;20106;-78
2024/01/11 02:22:40;;;;;;;0.10;0.10;;;;;;;-146.30;100.00;58188.94;10494416;28;20450;-79
2024/01/11 02:27:49;;;;;;;0.00;0.00;;;;;;;-146.30;100.00;58188.94;10475360;28;20141;-79
2024/01/11 02:32:52;;;;;;;0.10;0.10;;;;;;;-146.30;100.00;58188.94;10503061;28;20039;-79
2024/01/11 02:37:55;;;;;;;0.00;0.00;;;;;;;-146.30;100.00;58188.94;10484310;28;20079;-78
2024/01/11 02:42:57;;;;;;;0.10;0.10;;;;;;;-146.30;100.00;58188.94;10515611;28;20442;-79
2024/01/11 02:47:59;;;;;;;2.50;1.67;;;;;;;-146.30;100.00;58188.94;10514538;28;20052;-79
2024/01/11 02:53:01;;;;;;;0.00;0.00;;;;;;;-146.30;100.00;58188.94;10498678;28;20121;-79
2024/01/11 02:58:03;;;;;;;2.05;1.95;;;;;;;-146.30;100.00;58188.94;10495902;28;20249;-77
2024/01/11 03:03:05;;;;;;;0.10;0.10;;;;;;;-146.30;100.00;58188.94;10504066;28;20101;-79
2024/01/11 03:08:07;;;;;;;0.05;0.05;;;;;;;-146.30;100.00;58188.94;10497517;28;20127;-77
2024/01/11 03:13:09;;;;;;;0.00;0.00;;;;;;;-146.30;100.00;58188.94;10482517;28;20110;-79
2024/01/11 03:18:11;;;;;;;0.55;0.55;;;;;;;-146.30;100.00;58188.94;10489201;28;20045;-79
2024/01/11 03:23:13;;;;;;;0.20;0.20;;;;;;;-146.30;100.00;58188.94;10510478;28;20047;-79
2024/01/11 03:28:15;;;;;;;0.15;0.15;;;;;;;-146.30;100.00;58188.94;10479409;28;20627;-79
2024/01/11 03:33:17;;;;;;;0.30;0.30;;;;;;;-146.30;100.00;58188.94;10482521;28;20044;-78
2024/01/11 03:38:19;;;;;;;1.95;1.75;;;;;;;-146.30;100.00;58188.94;10531075;28;20052;-79
2024/01/11 03:43:21;;;;;;;0.30;0.30;;;;;;;-146.30;100.00;58188.94;10511879;28;20047;-79
2024/01/11 03:48:22;;;;;;;0.10;0.10;;;;;;;-146.30;100.00;58188.94;10492558;28;20044;-79
2024/01/11 03:53:24;;;;;;;0.10;0.10;;;;;;;-146.30;100.00;58188.94;10489707;28;20331;-78
2024/01/11 03:58:26;;;;;;;0.10;0.10;;;;;;;-146.30;100.00;58188.94;10511468;28;20044;-78
2024/01/11 04:03:28;;;;;;;1.55;1.40;;;;;;;-146.30;100.00;58188.94;10491772;28;20048;-78
2024/01/11 04:08:30;;;;;;;0.73;0.73;;;;;;;-146.30;100.00;58188.94;10495572;28;20050;-78
2024/01/11 04:13:31;;;;;;;0.10;0.10;;;;;;;-146.30;100.00;58188.94;10479737;28;20045;-79
2024/01/11 04:18:33;;;;;;;1.13;1.10;;;;;;;-146.30;100.00;58188.94;10487187;28;20044;-78
2024/01/11 04:23:35;;;;;;;0.10;0.10;;;;;;;-146.30;100.00;58188.94;10496098;28;20048;-78
2024/01/11 04:28:37;;;;;;;0.20;0.20;;;;;;;-146.30;100.00;58188.94;10477847;28;20052;-78
2024/01/11 04:33:43;;;;;;;0.25;0.25;;;;;;;-146.30;100.00;58188.94;10477507;28;20132;-78
2024/01/11 04:38:45;;;;;;;0.10;0.10;;;;;;;-146.30;100.00;58188.94;10492709;28;20049;-78
2024/01/11 04:43:46;;;;;;;0.20;0.20;;;;;;;-146.30;100.00;58188.94;10496853;28;20052;-78
2024/01/11 04:48:49;;;;;;;0.95;0.95;;;;;;;-146.30;100.00;58188.94;10511326;28;20071;-79
2024/01/11 04:53:51;;;;;;;0.10;0.10;;;;;;;-146.30;100.00;58188.94;10474524;28;20041;-77
2024/01/11 04:58:53;;;;;;;0.10;0.10;;;;;;;-146.30;100.00;58188.94;10492409;28;20045;-79
2024/01/11 05:03:55;;;;;;;0.75;0.75;;;;;;;-146.30;100.00;58188.94;10493084;28;20040;-78
2024/01/11 05:08:56;;;;;;;0.00;0.00;;;;;;;-146.30;100.00;58188.94;10478710;28;20079;-78
2024/01/11 05:13:58;;;;;;;0.10;0.10;;;;;;;-146.30;100.00;58188.94;10476896;28;20052;-79
2024/01/11 05:19:00;;;;;;;0.00;0.00;;;;;;;-146.30;100.00;58188.94;10491727;28;20090;-78
2024/01/11 05:24:01;;;;;;;0.10;0.10;;;;;;;-146.30;100.00;58188.94;10496033;28;20098;-78
2024/01/11 05:29:04;;;;;;;0.32;0.32;;;;;;;-146.30;100.00;58188.94;10498510;28;20534;-78
2024/01/11 05:34:06;;;;;;;0.10;0.10;;;;;;;-146.30;100.00;58188.94;10495715;28;20055;-78
2024/01/11 05:39:08;;;;;;;0.38;0.38;;;;;;;-146.30;100.00;58188.94;10488350;28;20075;-78
2024/01/11 05:44:10;;;;;;;0.10;0.10;;;;;;;-146.30;100.00;58188.94;10498974;28;20040;-78
2024/01/11 05:49:12;;;;;;;0.00;0.00;;;;;;;-146.30;100.00;58188.94;10482369;28;20515;-79
2024/01/11 05:54:14;;;;;;;0.20;0.20;;;;;;;-146.30;100.00;58188.94;10512952;28;20053;-78
2024/01/11 05:59:15;;;;;;;0.10;0.10;;;;;;;-146.30;100.00;58188.94;10499188;28;20419;-78
2024/01/11 06:04:17;;;;;;;0.20;0.20;;;;;;;-146.30;100.00;58188.94;10481436;28;20063;-79
2024/01/11 06:09:19;;;;;;;0.10;0.10;;;;;;;-146.30;100.00;58188.94;10487644;28;20138;-79
2024/01/11 06:14:21;;;;;;;0.00;0.00;;;;;;;-146.30;100.00;58188.94;10479339;28;20158;-78
2024/01/11 06:19:23;;;;;;;0.20;0.20;;;;;;;-146.30;100.00;58188.94;10476799;28;20052;-78
2024/01/11 06:24:24;;;;;;;0.17;0.17;;;;;;;-146.30;100.00;58188.94;10500007;28;20575;-78
2024/01/11 06:29:26;;;;;;;0.00;0.00;;;;;;;-146.30;100.00;58188.94;10511235;28;20136;-77
2024/01/11 06:34:28;;;;;;;3.20;1.65;;;;;;;-146.30;100.00;58188.94;10496725;28;20068;-77
2024/01/11 06:39:30;;;;;;;0.28;0.28;;;;;;;-146.30;100.00;58188.94;10494478;28;20052;-77
2024/01/11 06:44:32;;;;;;;0.10;0.10;;;;;;;-146.30;100.00;58188.94;10508574;28;20474;-77
2024/01/11 06:49:34;;;;;;;0.10;0.10;;;;;;;-146.30;100.00;58188.94;10498783;28;20044;-77
2024/01/11 06:54:35;;;;;;;0.20;0.20;;;;;;;-146.30;100.00;58188.94;10489170;28;20792;-77
2024/01/11 06:59:37;;;;;;;0.10;0.10;;;;;;;-146.30;100.00;58188.94;10503183;28;20067;-77
2024/01/11 07:04:43;;;;;;;0.85;0.73;;;;;;;-146.30;100.00;58188.94;10525111;28;20048;-77
2024/01/11 07:09:45;;;;;;;0.10;0.10;;;;;;;-146.30;100.00;58188.94;10496940;28;20037;-76
2024/01/11 07:14:47;;;;;;;3.22;1.85;;;;;;;-146.30;100.00;58188.94;10515191;28;20060;-79
2024/01/11 07:19:49;;;;;;;1.73;1.33;;;;;;;-146.30;100.00;58188.94;10486960;28;20032;-77
2024/01/11 07:24:52;;;;;;;0.63;0.63;;;;;;;-146.30;100.00;58188.94;10491689;28;20040;-78
2024/01/11 07:29:53;;;;;;;0.10;0.10;;;;;;;-146.30;100.00;58188.94;10479354;28;20514;-78
2024/01/11 07:34:55;;;;;;;1.00;1.00;;;;;;;-146.30;100.00;58188.94;10479819;28;20048;-78
2024/01/11 07:39:57;;;;;;;0.10;0.10;;;;;;;-146.30;100.00;58188.94;10513625;28;20465;-78
2024/01/11 07:44:59;;;;;;;0.00;0.00;;;;;;;-146.30;100.00;58188.94;10513113;28;20042;-79
2024/01/11 07:50:03;;;;;;;0.13;0.13;;;;;;;-146.30;100.00;58188.94;10502524;28;20082;-78
2024/01/11 07:55:09;;;;;;;0.10;0.10;;;;;;;-146.30;100.00;58188.94;10481944;28;20462;-78
2024/01/11 08:00:11;;;;;;;0.85;0.85;;;;;;;-146.30;100.00;58188.94;10520544;28;20058;-78
2024/01/11 08:05:13;;;;;;;1.00;0.77;;;;;;;-146.30;100.00;58188.94;10505280;28;20051;-78
2024/01/11 08:10:15;;;;;;;0.10;0.10;;;;;;;-146.30;100.00;58188.94;10501229;28;20523;-78
2024/01/11 08:15:17;;;;;;;0.10;0.10;;;;;;;-146.30;100.00;58188.94;10479858;28;20049;-79
2024/01/11 08:20:19;;;;;;;0.10;0.10;;;;;;;-146.30;100.00;58188.94;10479221;28;20064;-79
2024/01/11 08:25:21;;;;;;;0.55;0.55;;;;;;;-146.30;100.00;58188.94;10506962;28;20040;-78
2024/01/11 08:30:23;;;;;;;0.88;0.82;;;;;;;-146.30;100.00;58188.94;10490307;28;20555;-78
2024/01/11 08:35:25;;;;;;;0.40;0.40;;;;;;;-146.30;100.00;58188.94;10476988;28;20040;-78
2024/01/11 08:40:26;;;;;;;0.10;0.10;;;;;;;-146.30;100.00;58188.94;10510483;28;20040;-80
2024/01/11 08:45:29;;;;;;;0.10;0.10;;;;;;;-146.30;100.00;58188.94;10477343;28;20050;-78
2024/01/11 08:50:32;;;;;;;0.30;0.30;;;;;;;-146.30;100.00;58188.94;10476621;28;20040;-78
2024/01/11 08:55:34;;;;;;;35.05;3.17;;;;;;;-146.30;100.00;58188.94;10468213;28;20588;-78
2024/01/11 09:00:37;;;;;;;0.10;0.10;;;;;;;-146.30;100.00;58188.94;10493579;28;20063;-78
2024/01/11 09:05:39;;;;;;;1.35;1.05;;;;;;;-146.30;100.00;58188.94;10464349;28;20507;-78
2024/01/11 09:10:41;;;;;;;0.63;0.63;;;;;;;-146.30;100.00;58188.94;10486877;28;20153;-79
2024/01/11 09:15:43;;;;;;;0.08;0.08;;;;;;;-146.30;100.00;58188.94;10505572;28;20054;-78
2024/01/11 09:20:46;;;;;;;1.10;1.00;;;;;;;-146.30;100.00;58188.94;10477033;28;20063;-78
2024/01/11 09:25:47;;;;;;;0.38;0.38;;;;;;;-146.30;100.00;58188.94;10489083;28;20053;-78
2024/01/11 09:30:49;;;;;;;0.10;0.10;;;;;;;-146.30;100.00;58188.94;10504294;28;20415;-78
2024/01/11 09:35:51;;;;;;;0.10;0.10;;;;;;;-146.30;100.00;58188.94;10476357;28;20427;-79
2024/01/11 09:41:09;;;;;;;0.22;0.22;;;;;;;-146.30;100.00;58188.94;10495549;28;20043;-79
2024/01/11 09:46:16;;;;;;;1.70;1.42;;;;;;;-146.30;100.00;58188.94;10515968;28;20052;-78
2024/01/11 09:51:18;;;;;;;3.60;2.92;;;;;;;-146.30;100.00;58188.94;10487615;28;20438;-78
2024/01/11 09:56:19;;;;;;;0.13;0.13;;;;;;;-146.30;100.00;58188.94;10473975;28;20062;-77
2024/01/11 10:01:23;;;;;;;0.10;0.10;;;;;;;-146.30;100.00;58188.94;10491442;28;20041;-79
2024/01/11 10:06:26;;;;;;;0.20;0.20;;;;;;;-146.30;100.00;58188.94;10481510;28;20051;-78
2024/01/11 10:11:27;;;;;;;1.65;1.23;;;;;;;-146.30;100.00;58188.94;10459533;28;20080;-79
2024/01/11 10:16:29;;;;;;;0.50;0.50;;;;;;;-146.30;100.00;58188.94;10486889;28;20047;-78
2024/01/11 10:21:31;;;;;;;0.00;0.00;;;;;;;-146.30;100.00;58188.94;10496665;28;20479;-79
2024/01/11 10:26:33;;;;;;;1.27;1.17;;;;;;;-146.30;100.00;58188.94;10500756;28;20129;-78
2024/01/11 10:31:35;;;;;;;0.13;0.13;;;;;;;-146.30;100.00;58188.94;10482355;28;20045;-78
2024/01/11 10:36:37;;;;;;;0.20;0.20;;;;;;;-146.30;100.00;58188.94;10482286;28;20390;-79
2024/01/11 10:41:41;;;;;;;0.63;0.55;;;;;;;-146.30;100.00;58188.94;10481029;28;20403;-79
2024/01/11 10:46:45;;;;;;;5.53;0.88;;;;;;;-146.30;100.00;58188.94;10458940;28;20053;-79
2024/01/11 10:52:00;;;;;;;0.05;0.05;;;;;;;-146.30;100.00;58188.94;10499395;28;20380;-79
2024/01/11 10:57:05;;;;;;;1.65;1.55;;;;;;;-146.30;100.00;58188.94;10468488;28;20063;-80
2024/01/11 11:02:11;;;;;;;0.00;0.00;;;;;;;-146.30;100.00;58188.94;10481257;28;20044;-80
2024/01/11 11:07:15;;;;;;;0.10;0.10;;;;;;;-146.30;100.00;58188.94;10484454;28;20041;-80
2024/01/11 11:12:19;;;;;;;0.10;0.10;;;;;;;-146.30;100.00;58188.94;10490098;28;20036;-79
2024/01/11 11:17:21;;;;;;;0.00;0.00;;;;;;;-146.30;100.00;58188.94;10473449;28;20094;-80
2024/01/11 11:22:26;;;;;;;0.00;0.00;;;;;;;-146.30;100.00;58188.94;10509580;28;20032;-80
2024/01/11 11:27:28;;;;;;;0.00;0.00;;;;;;;-146.30;100.00;58188.94;10471346;28;20487;-79
2024/01/11 11:32:43;;;;;;;2.00;1.85;;;;;;;-146.30;100.00;58188.94;10495722;28;20052;-79
2024/01/11 11:37:45;;;;;;;4.00;1.55;;;;;;;-146.30;100.00;58188.94;10479715;28;20079;-79
2024/01/11 11:42:47;;;;;;;0.22;0.22;;;;;;;-146.30;100.00;58188.94;10504593;28;20033;-79
2024/01/11 11:47:49;;;;;;;0.32;0.32;;;;;;;-146.30;100.00;58188.94;10505752;28;20575;-79
2024/01/11 11:52:58;;;;;;;0.70;0.68;;;;;;;-146.30;100.00;58188.94;10490179;28;20503;-79
2024/01/11 11:57:59;;;;;;;0.38;0.38;;;;;;;-146.30;100.00;58188.94;10506795;28;20106;-80
2024/01/11 12:03:03;;;;;;;0.00;0.00;;;;;;;-146.30;100.00;58188.94;10491753;28;20048;-80
2024/01/11 12:08:05;;;;;;;1.15;1.10;;;;;;;-146.30;100.00;58188.94;10481110;28;20155;-80
2024/01/11 12:13:07;;;;;;;0.00;0.00;;;;;;;-146.30;100.00;58188.94;10478340;28;20129;-80
2024/01/11 12:18:10;;;;;;;0.82;0.82;;;;;;;-146.30;100.00;58188.94;10480621;28;20414;-80
2024/01/11 12:23:15;;;;;;;0.20;0.20;;;;;;;-146.30;100.00;58188.94;10498977;28;20667;-81
2024/01/11 12:28:17;;;;;;;0.35;0.35;;;;;;;-146.30;100.00;58188.94;10475312;28;20051;-79
2024/01/11 12:33:19;;;;;;;0.38;0.38;;;;;;;-146.30;100.00;58188.94;10478123;28;20045;-80
2024/01/11 12:38:21;;;;;;;3.20;2.28;;;;;;;-146.30;100.00;58188.94;10514207;28;20048;-81
2024/01/11 12:43:24;;;;;;;2.83;1.75;;;;;;;-146.30;100.00;58188.94;10497104;28;20068;-80
2024/01/11 12:48:25;;;;;;;0.45;0.38;;;;;;;-146.30;100.00;58188.94;10497461;28;20054;-81
2024/01/11 12:53:28;;;;;;;0.00;0.00;;;;;;;-146.30;100.00;58188.94;10482305;28;20462;-80
2024/01/11 12:58:30;;;;;;;0.10;0.10;;;;;;;-146.30;100.00;58188.94;10463393;28;20056;-81
2024/01/11 13:03:32;;;;;;;0.20;0.20;;;;;;;-146.30;100.00;58188.94;10510978;28;20043;-80
2024/01/11 13:08:37;;;;;;;0.40;0.40;;;;;;;-146.30;100.00;58188.94;10474053;28;20050;-80
2024/01/11 13:13:39;;;;;;;0.30;0.30;;;;;;;-146.30;100.00;58188.94;10507858;28;20045;-81
2024/01/11 13:18:41;;;;;;;0.00;0.00;;;;;;;-146.30;100.00;58188.94;10484619;28;20049;-80
2024/01/11 13:23:43;;;;;;;0.05;0.05;;;;;;;-146.30;100.00;58188.94;10476623;28;20035;-81
2024/01/11 13:28:45;;;;;;;2.42;1.17;;;;;;;-146.30;100.00;58188.94;10517673;28;20052;-81
2024/01/11 13:33:47;;;;;;;7.43;3.78;;;;;;;-146.30;100.00;58188.94;10475803;28;20037;-81
2024/01/11 13:38:50;;;;;;;6.30;3.15;;;;;;;-146.30;100.00;58188.94;10497811;28;20565;-81
2024/01/11 13:43:54;;;;;;;0.35;0.35;;;;;;;-146.30;100.00;58188.94;10485172;28;20056;-80
2024/01/11 13:48:56;;;;;;;1.27;1.17;;;;;;;-146.30;100.00;58188.94;10499688;28;20044;-80
2024/01/11 13:54:01;;;;;;;0.35;0.35;;;;;;;-146.30;100.00;58188.94;10497384;28;20048;-80
2024/01/11 13:59:03;;;;;;;0.90;0.90;;;;;;;-146.30;100.00;58188.94;10478203;28;20088;-81
2024/01/11 14:04:05;;;;;;;0.30;0.30;;;;;;;-146.30;100.00;58188.94;10503430;28;20109;-80
2024/01/11 14:09:09;;;;;;;0.60;0.50;;;;;;;-146.30;100.00;58188.94;10496936;28;20136;-81
2024/01/11 14:14:11;;;;;;;0.50;0.35;;;;;;;-146.30;100.00;58188.94;10490087;28;20044;-81
2024/01/11 14:19:13;;;;;;;0.20;0.20;;;;;;;-146.30;100.00;58188.94;10492071;28;20064;-81
2024/01/11 14:24:15;;;;;;;0.00;0.00;;;;;;;-146.30;100.00;58188.94;10473843;28;20040;-80
2024/01/11 14:29:26;;;;;;;0.00;0.00;;;;;;;-146.30;100.00;58188.94;10487336;28;20086;-81
2024/01/11 14:34:28;;;;;;;0.10;0.10;;;;;;;-146.30;100.00;58188.94;10512588;28;20342;-80
2024/01/11 14:39:30;;;;;;;0.35;0.35;;;;;;;-146.30;100.00;58188.94;10475523;28;20063;-80
2024/01/11 14:44:32;;;;;;;0.00;0.00;;;;;;;-146.30;100.00;58188.94;10465482;28;20135;-80
2024/01/11 14:49:33;;;;;;;0.38;0.38;;;;;;;-146.30;100.00;58188.94;10492149;28;20052;-80
2024/01/11 14:54:35;;;;;;;0.10;0.10;;;;;;;-146.30;100.00;58188.94;10484364;28;20041;-80
2024/01/11 14:59:37;;;;;;;0.00;0.00;;;;;;;-146.30;100.00;58188.94;10499632;28;20077;-81
2024/01/11 15:04:39;;;;;;;0.55;0.55;;;;;;;-146.30;100.00;58188.94;10509187;28;20116;-80
2024/01/11 15:09:41;;;;;;;0.00;0.00;;;;;;;-146.30;100.00;58188.94;10489523;28;20563;-80
2024/01/11 15:14:42;;;;;;;0.10;0.10;;;;;;;-146.30;100.00;58188.94;10489068;28;20061;-80
2024/01/11 15:19:45;;;;;;;0.10;0.10;;;;;;;-146.30;100.00;58188.94;10485584;28;20380;-81
2024/01/11 15:24:52;;;;;;;0.03;0.03;;;;;;;-146.30;100.00;58188.94;10499178;28;20044;-81
2024/01/11 15:29:55;;;;;;;0.63;0.45;;;;;;;-146.30;100.00;58188.94;10477281;28;20052;-81
2024/01/11 15:34:57;;;;;;;0.40;0.40;;;;;;;-146.30;100.00;58188.94;10489142;28;20041;-81
2024/01/11 15:39:59;;;;;;;0.10;0.10;;;;;;;-146.30;100.00;58188.94;10501753;28;20159;-82
2024/01/11 15:45:05;;;;;;;5.07;1.73;;;;;;;-146.30;100.00;58188.94;10463317;28;20048;-81
2024/01/11 15:50:10;;;;;;;0.52;0.52;;;;;;;-146.30;100.00;58188.94;10488927;28;20056;-81
2024/01/11 15:55:11;;;;;;;0.90;0.43;;;;;;;-146.30;100.00;58188.94;10485652;28;20515;-81
2024/01/11 16:00:14;;;;;;;0.38;0.30;;;;;;;-146.30;100.00;58188.94;10500440;28;20055;-82
2024/01/11 16:05:15;;;;;;;1.98;1.15;;;;;;;-146.30;100.00;58188.94;10510981;28;20506;-82
2024/01/11 16:10:17;;;;;;;0.88;0.50;;;;;;;-146.30;100.00;58188.94;10512757;28;20036;-82
2024/01/11 16:15:20;;;;;;;2.67;1.73;;;;;;;-146.30;100.00;58188.94;10500415;28;20456;-82
2024/01/11 16:20:22;;;;;;;0.63;0.63;;;;;;;-146.30;100.00;58188.94;10495752;28;20043;-82
2024/01/11 16:25:24;;;;;;;0.20;0.20;;;;;;;-146.30;100.00;58188.94;10500585;28;20052;-82
2024/01/11 16:30:25;;;;;;;1.95;0.55;;;;;;;-146.30;100.00;58188.94;10476547;28;20131;-82
2024/01/11 16:35:27;;;;;;;1.20;1.10;;;;;;;-146.30;100.00;58188.94;10489109;28;20544;-82
2024/01/11 16:40:29;;;;;;;0.90;0.85;;;;;;;-146.30;100.00;58188.94;10510777;28;20075;-82
2024/01/11 16:45:36;;;;;;;0.75;0.65;;;;;;;-146.30;100.00;58188.94;10490168;28;20052;-82
2024/01/11 16:50:38;;;;;;;4.65;2.47;;;;;;;-146.30;100.00;58188.94;10484047;28;20040;-82
2024/01/11 16:55:40;;;;;;;1.13;1.02;;;;;;;-146.30;100.00;58188.94;10470164;28;20083;-82
2024/01/11 17:00:44;;;;;;;1.48;1.38;;;;;;;-146.30;100.00;58188.94;10480115;28;20049;-82
2024/01/11 17:05:47;;;;;;;4.97;0.70;;;;;;;-146.30;100.00;58188.94;10500325;28;20056;-82
2024/01/11 17:10:49;;;;;;;0.82;0.82;;;;;;;-146.30;100.00;58188.94;10476021;28;20051;-81
2024/01/11 17:15:50;;;;;;;0.77;0.77;;;;;;;-146.30;100.00;58188.94;10486206;28;20051;-83
2024/01/11 17:20:52;;;;;;;0.00;0.00;;;;;;;-146.30;100.00;58188.94;10475620;28;20111;-82
2024/01/11 17:25:56;;;;;;;1.88;1.75;;;;;;;-146.30;100.00;58188.94;10462467;28;20449;-82
2024/01/11 17:30:58;;;;;;;1.23;1.13;;;;;;;-146.30;100.00;58188.94;10493006;28;20086;-83
2024/01/11 17:36:00;;;;;;;0.75;0.75;;;;;;;-146.30;100.00;58188.94;10499162;28;20048;-82
2024/01/11 17:41:03;;;;;;;2.78;1.58;;;;;;;-146.30;100.00;58188.94;10474138;28;20057;-82
2024/01/11 17:46:05;;;;;;;0.40;0.40;;;;;;;-146.30;100.00;58188.94;10481964;28;20044;-83
2024/01/11 17:51:11;;;;;;;0.30;0.30;;;;;;;-146.30;100.00;58188.94;10475371;28;20091;-82
2024/01/11 17:56:13;;;;;;;5.30;1.00;;;;;;;-146.30;100.00;58188.94;10476767;28;20089;-82
2024/01/11 18:01:24;;;;;;;2.05;1.90;;;;;;;-146.30;100.00;58188.94;10479127;28;20040;-82
2024/01/11 18:06:26;;;;;;;0.10;0.10;;;;;;;-146.30;100.00;58188.94;10497219;28;20056;-82
2024/01/11 18:11:28;;;;;;;1.35;1.25;;;;;;;-146.30;100.00;58188.94;10467571;28;20041;-82
2024/01/11 18:16:30;;;;;;;0.60;0.57;;;;;;;-146.30;100.00;58188.94;10495119;28;20048;-83
2024/01/11 18:21:32;;;;;;;2.10;1.90;;;;;;;-146.30;100.00;58188.94;10469953;28;20052;-83
2024/01/11 18:26:34;;;;;;;1.08;0.98;;;;;;;-146.30;100.00;58188.94;10483193;28;20119;-82
2024/01/11 18:31:37;;;;;;;4.75;2.47;;;;;;;-146.30;100.00;58188.94;10499248;28;20049;-83
2024/01/11 18:36:44;;;;;;;0.70;0.68;;;;;;;-146.30;100.00;58188.94;10468117;28;20076;-83
2024/01/11 18:41:45;;;;;;;0.28;0.28;;;;;;;-146.30;100.00;58188.94;10493416;28;20064;-83
2024/01/11 18:46:47;;;;;;;0.13;0.13;;;;;;;-146.30;100.00;58188.94;10481745;28;20044;-83
2024/01/11 18:51:49;;;;;;;0.10;0.10;;;;;;;-146.30;100.00;58188.94;10483214;28;20136;-83
2024/01/11 18:56:51;;;;;;;0.63;0.63;;;;;;;-146.30;100.00;58188.94;10482303;28;20041;-83
2024/01/11 19:01:53;;;;;;;0.73;0.73;;;;;;;-146.30;100.00;58188.94;10488846;28;20113;-83
2024/01/11 19:06:57;;;;;;;2.63;2.47;;;;;;;-146.30;100.00;58188.94;10485328;28;20055;-83
2024/01/11 19:12:00;;;;;;;1.05;0.98;;;;;;;-146.30;100.00;58188.94;10480558;28;20051;-83
2024/01/11 19:17:04;;;;;;;0.50;0.50;;;;;;;-146.30;100.00;58188.94;10500954;28;20048;-83
2024/01/11 19:22:07;;;;;;;0.40;0.40;;;;;;;-146.30;100.00;58188.94;10459254;28;20062;-83
2024/01/11 19:27:09;;;;;;;0.45;0.45;;;;;;;-146.30;100.00;58188.94;10490162;28;20163;-83
2024/01/11 19:32:11;;;;;;;0.47;0.32;;;;;;;-146.30;100.00;58188.94;10481809;28;20044;-83
2024/01/11 19:37:13;;;;;;;1.23;1.13;;;;;;;-146.30;100.00;58188.94;10480112;28;20088;-82
2024/01/11 19:42:19;;;;;;;0.50;0.47;;;;;;;-146.30;100.00;58188.94;10503853;28;20040;-83
2024/01/11 19:47:21;;;;;;;0.32;0.32;;;;;;;-146.30;100.00;58188.94;10511461;28;20045;-83
2024/01/11 19:52:23;;;;;;;0.52;0.52;;;;;;;-146.30;100.00;58188.94;10500825;28;20094;-83
2024/01/11 19:57:25;;;;;;;3.30;1.77;;;;;;;-146.30;100.00;58188.94;10478704;28;20046;-83
2024/01/11 20:02:27;;;;;;;1.10;0.55;;;;;;;-146.30;100.00;58188.94;10495273;28;20051;-83
2024/01/11 20:07:29;;;;;;;1.65;1.20;;;;;;;-146.30;100.00;58188.94;10482908;28;20051;-83
2024/01/11 20:12:31;;;;;;;0.20;0.20;;;;;;;-146.30;100.00;58188.94;10498265;28;20079;-83
2024/01/11 20:17:33;;;;;;;3.72;1.58;;;;;;;-146.30;100.00;58188.94;10486071;28;20135;-83
2024/01/11 20:22:35;;;;;;;0.55;0.55;;;;;;;-146.30;100.00;58188.94;10481063;28;20430;-83
2024/01/11 20:27:37;;;;;;;0.50;0.50;;;;;;;-146.30;100.00;58188.94;10463595;28;20055;-83
2024/01/11 20:32:39;;;;;;;2.72;1.85;;;;;;;-146.30;100.00;58188.94;10481579;28;20139;-83
2024/01/11 20:37:41;;;;;;;0.88;0.88;;;;;;;-146.30;100.00;58188.94;10473456;28;20380;-83
2024/01/11 20:42:43;;;;;;;2.03;1.80;;;;;;;-146.30;100.00;58188.94;10494340;28;20106;-83
2024/01/11 20:47:44;;;;;;;0.05;0.05;;;;;;;-146.30;100.00;58188.94;10471256;28;20083;-83
2024/01/11 20:52:46;;;;;;;0.60;0.60;;;;;;;-146.30;100.00;58188.94;10477459;28;20060;-83
2024/01/11 20:57:48;;;;;;;0.30;0.30;;;;;;;-146.30;100.00;58188.94;10466629;28;20106;-83
2024/01/11 21:02:50;;;;;;;0.05;0.05;;;;;;;-146.30;100.00;58188.94;10514522;28;20036;-83
2024/01/11 21:07:52;;;;;;;0.32;0.32;;;;;;;-146.30;100.00;58188.94;10481016;28;20051;-83
2024/01/11 21:12:54;;;;;;;19.75;1.17;;;;;;;-146.30;100.00;58188.94;10479758;28;20044;-83
2024/01/11 21:17:56;;;;;;;0.20;0.20;;;;;;;-146.30;100.00;58188.94;10477314;28;20411;-83
2024/01/11 21:22:58;;;;;;;0.20;0.20;;;;;;;-146.30;100.00;58188.94;10488141;28;20044;-84
2024/01/11 21:28:00;;;;;;;5.50;1.65;;;;;;;-146.30;100.00;58188.94;10512710;28;20507;-83
2024/01/11 21:33:02;;;;;;;3.20;0.73;;;;;;;-146.30;100.00;58188.94;10500878;28;20064;-84
2024/01/11 21:38:04;;;;;;;0.30;0.30;;;;;;;-146.30;100.00;58188.94;10480040;28;20083;-84
2024/01/11 21:43:08;;;;;;;0.00;0.00;;;;;;;-146.30;100.00;58188.94;10505649;28;20075;-84
2024/01/11 21:48:11;;;;;;;0.45;0.20;;;;;;;-146.30;100.00;58188.94;10477109;28;20044;-83
2024/01/11 21:53:13;;;;;;;1.20;1.10;;;;;;;-146.30;100.00;58188.94;10479451;28;20047;-84
2024/01/11 21:58:18;;;;;;;0.08;0.08;;;;;;;-146.30;100.00;58188.94;10477831;28;20045;-84
2024/01/11 22:03:20;;;;;;;0.05;0.05;;;;;;;-146.30;100.00;58188.94;10475323;28;20040;-84
2024/01/11 22:08:22;;;;;;;0.57;0.57;;;;;;;-146.30;100.00;58188.94;10518430;28;20131;-84
2024/01/11 22:13:24;;;;;;;0.50;0.50;;;;;;;-146.30;100.00;58188.94;10505312;28;20556;-83
2024/01/11 22:18:25;;;;;;;1.65;1.05;;;;;;;-146.30;100.00;58188.94;10485950;28;20068;-83
2024/01/11 22:23:28;;;;;;;7.20;0.47;;;;;;;-146.30;100.00;58188.94;10501866;28;20045;-84
2024/01/11 22:28:30;;;;;;;1.90;1.48;;;;;;;-146.30;100.00;58188.94;10485888;28;20712;-83
2024/01/11 22:33:32;;;;;;;0.85;0.85;;;;;;;-146.30;100.00;58188.94;10485721;28;20075;-83
2024/01/11 22:38:34;;;;;;;1.20;1.10;;;;;;;-146.30;100.00;58188.94;10485944;28;20483;-84